sensor_id;sensor_type;location;lat;lon;timestamp;P1;durP1;ratioP1;P2;durP2;ratioP2
15708;SDS011;7954;51.914;8.420;2023-09-12T00:02:20;2.57;;;2.37;;
15708;SDS011;7954;51.914;8.420;2023-09-12T00:04:48;2.40;;;2.20;;
15708;SDS011;7954;51.914;8.420;2023-09-12T00:07:17;3.03;;;2.40;;
15708;SDS011;7954;51.914;8.420;2023-09-12T00:09:45;4.33;;;2.33;;
15708;SDS011;7954;51.914;8.420;2023-09-12T00:12:14;2.43;;;2.20;;
15708;SDS011;7954;51.914;8.420;2023-09-12T00:14:43;2.50;;;2.30;;
15708;SDS011;7954;51.914;8.420;2023-09-12T00:17:13;2.67;;;2.23;;
15708;SDS011;7954;51.914;8.420;2023-09-12T00:19:43;2.23;;;2.03;;
15708;SDS011;7954;51.914;8.420;2023-09-12T00:22:12;2.47;;;2.27;;
15708;SDS011;7954;51.914;8.420;2023-09-12T00:24:40;2.40;;;2.20;;
15708;SDS011;7954;51.914;8.420;2023-09-12T00:27:08;2.07;;;1.97;;
15708;SDS011;7954;51.914;8.420;2023-09-12T00:29:36;2.13;;;2.03;;
15708;SDS011;7954;51.914;8.420;2023-09-12T00:32:05;2.00;;;1.90;;
15708;SDS011;7954;51.914;8.420;2023-09-12T00:34:33;2.47;;;2.03;;
15708;SDS011;7954;51.914;8.420;2023-09-12T00:37:03;2.00;;;1.80;;
15708;SDS011;7954;51.914;8.420;2023-09-12T00:39:32;2.23;;;2.03;;
15708;SDS011;7954;51.914;8.420;2023-09-12T00:42:00;2.23;;;1.80;;
15708;SDS011;7954;51.914;8.420;2023-09-12T00:44:28;2.17;;;1.90;;
15708;SDS011;7954;51.914;8.420;2023-09-12T00:46:56;3.43;;;2.13;;
15708;SDS011;7954;51.914;8.420;2023-09-12T00:49:25;2.10;;;2.00;;
15708;SDS011;7954;51.914;8.420;2023-09-12T00:51:55;2.70;;;2.07;;
15708;SDS011;7954;51.914;8.420;2023-09-12T00:54:25;2.10;;;1.90;;
15708;SDS011;7954;51.914;8.420;2023-09-12T00:56:54;2.20;;;2.07;;
15708;SDS011;7954;51.914;8.420;2023-09-12T00:59:22;3.47;;;3.17;;
15708;SDS011;7954;51.914;8.420;2023-09-12T01:01:50;3.20;;;3.00;;
15708;SDS011;7954;51.914;8.420;2023-09-12T01:04:19;3.57;;;3.23;;
15708;SDS011;7954;51.914;8.420;2023-09-12T01:07:00;4.40;;;3.30;;
15708;SDS011;7954;51.914;8.420;2023-09-12T01:09:29;3.20;;;3.00;;
15708;SDS011;7954;51.914;8.420;2023-09-12T01:11:58;3.50;;;3.20;;
15708;SDS011;7954;51.914;8.420;2023-09-12T01:14:27;3.77;;;3.30;;
15708;SDS011;7954;51.914;8.420;2023-09-12T01:16:55;4.80;;;3.30;;
15708;SDS011;7954;51.914;8.420;2023-09-12T01:19:24;3.90;;;3.50;;
15708;SDS011;7954;51.914;8.420;2023-09-12T01:22:00;5.30;;;4.00;;
15708;SDS011;7954;51.914;8.420;2023-09-12T01:27:46;4.23;;;3.93;;
15708;SDS011;7954;51.914;8.420;2023-09-12T01:30:17;4.50;;;4.10;;
15708;SDS011;7954;51.914;8.420;2023-09-12T01:32:45;4.70;;;3.60;;
15708;SDS011;7954;51.914;8.420;2023-09-12T01:35:14;4.73;;;4.00;;
15708;SDS011;7954;51.914;8.420;2023-09-12T01:37:43;3.97;;;3.50;;
15708;SDS011;7954;51.914;8.420;2023-09-12T01:40:11;5.00;;;3.90;;
15708;SDS011;7954;51.914;8.420;2023-09-12T01:42:42;4.87;;;4.47;;
15708;SDS011;7954;51.914;8.420;2023-09-12T01:45:16;4.80;;;4.40;;
15708;SDS011;7954;51.914;8.420;2023-09-12T01:47:49;5.10;;;4.60;;
15708;SDS011;7954;51.914;8.420;2023-09-12T01:50:18;4.37;;;3.97;;
15708;SDS011;7954;51.914;8.420;2023-09-12T01:52:47;5.03;;;4.30;;
15708;SDS011;7954;51.914;8.420;2023-09-12T01:55:17;4.63;;;4.13;;
15708;SDS011;7954;51.914;8.420;2023-09-12T01:57:45;4.70;;;4.30;;
15708;SDS011;7954;51.914;8.420;2023-09-12T02:00:16;4.90;;;4.50;;
15708;SDS011;7954;51.914;8.420;2023-09-12T02:02:45;4.67;;;4.27;;
15708;SDS011;7954;51.914;8.420;2023-09-12T02:05:13;5.20;;;4.80;;
15708;SDS011;7954;51.914;8.420;2023-09-12T02:07:45;5.50;;;4.70;;
15708;SDS011;7954;51.914;8.420;2023-09-12T02:10:14;5.40;;;4.90;;
15708;SDS011;7954;51.914;8.420;2023-09-12T02:12:44;4.83;;;4.43;;
15708;SDS011;7954;51.914;8.420;2023-09-12T02:15:12;6.23;;;5.63;;
15708;SDS011;7954;51.914;8.420;2023-09-12T02:17:42;6.10;;;5.43;;
15708;SDS011;7954;51.914;8.420;2023-09-12T02:20:11;6.70;;;6.03;;
15708;SDS011;7954;51.914;8.420;2023-09-12T02:22:39;8.57;;;7.67;;
15708;SDS011;7954;51.914;8.420;2023-09-12T02:25:07;9.47;;;8.57;;
15708;SDS011;7954;51.914;8.420;2023-09-12T02:27:35;11.17;;;8.67;;
15708;SDS011;7954;51.914;8.420;2023-09-12T02:30:04;9.00;;;8.13;;
15708;SDS011;7954;51.914;8.420;2023-09-12T02:32:33;9.17;;;8.27;;
15708;SDS011;7954;51.914;8.420;2023-09-12T02:35:03;9.47;;;7.67;;
15708;SDS011;7954;51.914;8.420;2023-09-12T02:37:32;8.97;;;8.27;;
15708;SDS011;7954;51.914;8.420;2023-09-12T02:40:01;7.83;;;7.03;;
15708;SDS011;7954;51.914;8.420;2023-09-12T02:42:30;7.77;;;7.07;;
15708;SDS011;7954;51.914;8.420;2023-09-12T02:44:59;7.50;;;6.80;;
15708;SDS011;7954;51.914;8.420;2023-09-12T02:47:27;6.30;;;5.77;;
15708;SDS011;7954;51.914;8.420;2023-09-12T02:49:55;5.90;;;5.40;;
15708;SDS011;7954;51.914;8.420;2023-09-12T02:52:25;6.17;;;5.67;;
15708;SDS011;7954;51.914;8.420;2023-09-12T02:54:53;6.07;;;5.57;;
15708;SDS011;7954;51.914;8.420;2023-09-12T02:57:21;6.77;;;6.17;;
15708;SDS011;7954;51.914;8.420;2023-09-12T02:59:49;6.63;;;5.93;;
15708;SDS011;7954;51.914;8.420;2023-09-12T03:02:17;6.47;;;5.83;;
15708;SDS011;7954;51.914;8.420;2023-09-12T03:04:45;5.87;;;5.27;;
15708;SDS011;7954;51.914;8.420;2023-09-12T03:07:13;6.47;;;5.80;;
15708;SDS011;7954;51.914;8.420;2023-09-12T03:09:43;5.83;;;5.33;;
15708;SDS011;7954;51.914;8.420;2023-09-12T03:12:11;6.20;;;5.60;;
15708;SDS011;7954;51.914;8.420;2023-09-12T03:14:40;7.23;;;4.90;;
15708;SDS011;7954;51.914;8.420;2023-09-12T03:17:08;6.73;;;5.00;;
15708;SDS011;7954;51.914;8.420;2023-09-12T03:19:36;5.30;;;4.80;;
15708;SDS011;7954;51.914;8.420;2023-09-12T03:22:04;5.37;;;4.67;;
15708;SDS011;7954;51.914;8.420;2023-09-12T03:24:32;4.80;;;4.40;;
15708;SDS011;7954;51.914;8.420;2023-09-12T03:27:02;10.40;;;5.27;;
15708;SDS011;7954;51.914;8.420;2023-09-12T03:29:31;5.07;;;4.67;;
15708;SDS011;7954;51.914;8.420;2023-09-12T03:31:59;5.13;;;4.73;;
15708;SDS011;7954;51.914;8.420;2023-09-12T03:34:27;4.90;;;4.50;;
15708;SDS011;7954;51.914;8.420;2023-09-12T03:36:56;5.23;;;4.73;;
15708;SDS011;7954;51.914;8.420;2023-09-12T03:39:24;5.63;;;5.10;;
15708;SDS011;7954;51.914;8.420;2023-09-12T03:41:52;7.37;;;5.00;;
15708;SDS011;7954;51.914;8.420;2023-09-12T03:44:23;5.23;;;4.73;;
15708;SDS011;7954;51.914;8.420;2023-09-12T03:46:51;4.60;;;4.07;;
15708;SDS011;7954;51.914;8.420;2023-09-12T03:49:18;4.70;;;4.30;;
15708;SDS011;7954;51.914;8.420;2023-09-12T03:51:46;4.40;;;3.60;;
15708;SDS011;7954;51.914;8.420;2023-09-12T03:54:14;3.40;;;3.10;;
15708;SDS011;7954;51.914;8.420;2023-09-12T03:56:42;3.40;;;3.10;;
15708;SDS011;7954;51.914;8.420;2023-09-12T03:59:11;3.00;;;2.70;;
15708;SDS011;7954;51.914;8.420;2023-09-12T04:01:41;3.43;;;3.13;;
15708;SDS011;7954;51.914;8.420;2023-09-12T04:04:09;3.20;;;3.00;;
15708;SDS011;7954;51.914;8.420;2023-09-12T04:06:37;3.10;;;2.80;;
15708;SDS011;7954;51.914;8.420;2023-09-12T04:09:05;3.03;;;2.73;;
15708;SDS011;7954;51.914;8.420;2023-09-12T04:11:33;3.27;;;2.97;;
15708;SDS011;7954;51.914;8.420;2023-09-12T04:14:12;2.60;;;2.40;;
15708;SDS011;7954;51.914;8.420;2023-09-12T04:16:42;2.67;;;2.47;;
15708;SDS011;7954;51.914;8.420;2023-09-12T04:19:13;2.57;;;2.37;;
15708;SDS011;7954;51.914;8.420;2023-09-12T04:21:41;2.50;;;2.30;;
15708;SDS011;7954;51.914;8.420;2023-09-12T04:24:10;2.80;;;2.60;;
15708;SDS011;7954;51.914;8.420;2023-09-12T04:26:38;2.70;;;2.50;;
15708;SDS011;7954;51.914;8.420;2023-09-12T04:29:06;2.20;;;2.10;;
15708;SDS011;7954;51.914;8.420;2023-09-12T04:31:34;2.93;;;2.63;;
15708;SDS011;7954;51.914;8.420;2023-09-12T04:34:04;2.40;;;2.20;;
15708;SDS011;7954;51.914;8.420;2023-09-12T04:36:33;2.70;;;2.50;;
15708;SDS011;7954;51.914;8.420;2023-09-12T04:39:01;2.30;;;2.10;;
15708;SDS011;7954;51.914;8.420;2023-09-12T04:41:29;3.17;;;2.30;;
15708;SDS011;7954;51.914;8.420;2023-09-12T04:43:56;2.37;;;2.17;;
15708;SDS011;7954;51.914;8.420;2023-09-12T04:46:25;2.40;;;2.20;;
15708;SDS011;7954;51.914;8.420;2023-09-12T04:48:53;4.23;;;2.73;;
15708;SDS011;7954;51.914;8.420;2023-09-12T04:51:22;4.13;;;2.90;;
15708;SDS011;7954;51.914;8.420;2023-09-12T04:53:50;3.57;;;3.00;;
15708;SDS011;7954;51.914;8.420;2023-09-12T04:56:18;4.50;;;3.07;;
15708;SDS011;7954;51.914;8.420;2023-09-12T04:58:46;4.13;;;3.00;;
15708;SDS011;7954;51.914;8.420;2023-09-12T05:01:14;5.57;;;3.10;;
15708;SDS011;7954;51.914;8.420;2023-09-12T05:03:43;4.63;;;3.07;;
15708;SDS011;7954;51.914;8.420;2023-09-12T05:06:11;4.20;;;2.70;;
15708;SDS011;7954;51.914;8.420;2023-09-12T05:08:41;4.20;;;3.40;;
15708;SDS011;7954;51.914;8.420;2023-09-12T05:11:10;5.23;;;3.10;;
15708;SDS011;7954;51.914;8.420;2023-09-12T05:13:38;3.93;;;3.00;;
15708;SDS011;7954;51.914;8.420;2023-09-12T05:16:06;3.40;;;2.90;;
15708;SDS011;7954;51.914;8.420;2023-09-12T05:18:35;3.93;;;2.80;;
15708;SDS011;7954;51.914;8.420;2023-09-12T05:21:03;4.27;;;3.57;;
15708;SDS011;7954;51.914;8.420;2023-09-12T05:23:30;3.83;;;2.80;;
15708;SDS011;7954;51.914;8.420;2023-09-12T05:26:00;3.83;;;3.53;;
15708;SDS011;7954;51.914;8.420;2023-09-12T05:28:29;5.13;;;3.10;;
15708;SDS011;7954;51.914;8.420;2023-09-12T05:30:57;3.93;;;3.30;;
15708;SDS011;7954;51.914;8.420;2023-09-12T05:33:25;5.37;;;2.97;;
15708;SDS011;7954;51.914;8.420;2023-09-12T05:35:54;5.20;;;3.60;;
15708;SDS011;7954;51.914;8.420;2023-09-12T05:38:22;4.03;;;3.10;;
15708;SDS011;7954;51.914;8.420;2023-09-12T05:40:50;5.57;;;3.87;;
15708;SDS011;7954;51.914;8.420;2023-09-12T05:43:21;3.50;;;3.20;;
15708;SDS011;7954;51.914;8.420;2023-09-12T05:45:50;4.53;;;3.50;;
15708;SDS011;7954;51.914;8.420;2023-09-12T05:48:18;3.93;;;3.63;;
15708;SDS011;7954;51.914;8.420;2023-09-12T05:50:46;5.03;;;3.53;;
15708;SDS011;7954;51.914;8.420;2023-09-12T05:53:14;4.30;;;3.60;;
15708;SDS011;7954;51.914;8.420;2023-09-12T05:55:42;10.40;;;4.60;;
15708;SDS011;7954;51.914;8.420;2023-09-12T05:58:11;6.03;;;3.70;;
15708;SDS011;7954;51.914;8.420;2023-09-12T06:00:41;4.00;;;3.20;;
15708;SDS011;7954;51.914;8.420;2023-09-12T06:03:09;4.73;;;3.00;;
15708;SDS011;7954;51.914;8.420;2023-09-12T06:05:43;4.53;;;3.40;;
15708;SDS011;7954;51.914;8.420;2023-09-12T06:08:11;4.23;;;3.30;;
15708;SDS011;7954;51.914;8.420;2023-09-12T06:10:39;6.63;;;3.70;;
15708;SDS011;7954;51.914;8.420;2023-09-12T06:13:07;5.50;;;3.87;;
15708;SDS011;7954;51.914;8.420;2023-09-12T06:15:38;4.37;;;3.60;;
15708;SDS011;7954;51.914;8.420;2023-09-12T06:18:09;3.70;;;3.30;;
15708;SDS011;7954;51.914;8.420;2023-09-12T06:20:37;5.30;;;4.13;;
15708;SDS011;7954;51.914;8.420;2023-09-12T06:23:05;4.80;;;3.67;;
15708;SDS011;7954;51.914;8.420;2023-09-12T06:25:33;7.17;;;4.03;;
15708;SDS011;7954;51.914;8.420;2023-09-12T06:28:02;3.70;;;3.40;;
15708;SDS011;7954;51.914;8.420;2023-09-12T06:30:30;4.63;;;3.80;;
15708;SDS011;7954;51.914;8.420;2023-09-12T06:32:58;4.60;;;3.37;;
15708;SDS011;7954;51.914;8.420;2023-09-12T06:35:28;4.50;;;3.70;;
15708;SDS011;7954;51.914;8.420;2023-09-12T06:37:56;4.43;;;3.90;;
15708;SDS011;7954;51.914;8.420;2023-09-12T06:40:24;4.03;;;3.70;;
15708;SDS011;7954;51.914;8.420;2023-09-12T06:42:52;5.33;;;4.10;;
15708;SDS011;7954;51.914;8.420;2023-09-12T06:45:20;4.27;;;3.97;;
15708;SDS011;7954;51.914;8.420;2023-09-12T06:47:48;5.37;;;4.40;;
15708;SDS011;7954;51.914;8.420;2023-09-12T06:50:16;6.37;;;4.47;;
15708;SDS011;7954;51.914;8.420;2023-09-12T06:52:46;8.27;;;5.40;;
15708;SDS011;7954;51.914;8.420;2023-09-12T06:55:14;4.33;;;3.77;;
15708;SDS011;7954;51.914;8.420;2023-09-12T06:57:42;8.47;;;4.77;;
15708;SDS011;7954;51.914;8.420;2023-09-12T07:00:12;6.77;;;4.50;;
15708;SDS011;7954;51.914;8.420;2023-09-12T07:02:40;6.20;;;4.70;;
15708;SDS011;7954;51.914;8.420;2023-09-12T07:05:08;5.07;;;4.10;;
15708;SDS011;7954;51.914;8.420;2023-09-12T07:07:37;4.40;;;4.00;;
15708;SDS011;7954;51.914;8.420;2023-09-12T07:10:07;41.90;;;9.27;;
15708;SDS011;7954;51.914;8.420;2023-09-12T07:12:50;11.80;;;7.27;;
15708;SDS011;7954;51.914;8.420;2023-09-12T07:15:18;11.40;;;8.10;;
15708;SDS011;7954;51.914;8.420;2023-09-12T07:17:47;9.70;;;8.13;;
15708;SDS011;7954;51.914;8.420;2023-09-12T07:20:15;15.83;;;11.77;;
15708;SDS011;7954;51.914;8.420;2023-09-12T07:22:44;14.87;;;11.60;;
15708;SDS011;7954;51.914;8.420;2023-09-12T07:25:14;11.30;;;10.00;;
15708;SDS011;7954;51.914;8.420;2023-09-12T07:27:42;13.43;;;11.73;;
15708;SDS011;7954;51.914;8.420;2023-09-12T07:30:10;14.30;;;11.93;;
15708;SDS011;7954;51.914;8.420;2023-09-12T07:32:38;12.10;;;10.73;;
15708;SDS011;7954;51.914;8.420;2023-09-12T07:35:07;10.93;;;9.83;;
15708;SDS011;7954;51.914;8.420;2023-09-12T07:37:35;13.17;;;11.77;;
15708;SDS011;7954;51.914;8.420;2023-09-12T07:40:03;13.00;;;11.63;;
15708;SDS011;7954;51.914;8.420;2023-09-12T07:42:38;12.10;;;10.80;;
15708;SDS011;7954;51.914;8.420;2023-09-12T07:45:07;16.43;;;12.90;;
15708;SDS011;7954;51.914;8.420;2023-09-12T07:47:36;12.20;;;9.93;;
15708;SDS011;7954;51.914;8.420;2023-09-12T07:50:05;13.30;;;11.90;;
15708;SDS011;7954;51.914;8.420;2023-09-12T07:52:34;10.50;;;9.40;;
15708;SDS011;7954;51.914;8.420;2023-09-12T07:55:03;13.90;;;11.10;;
15708;SDS011;7954;51.914;8.420;2023-09-12T07:57:32;13.57;;;12.17;;
15708;SDS011;7954;51.914;8.420;2023-09-12T08:00:03;11.17;;;10.10;;
15708;SDS011;7954;51.914;8.420;2023-09-12T08:02:36;12.97;;;11.67;;
15708;SDS011;7954;51.914;8.420;2023-09-12T08:05:05;11.83;;;10.67;;
15708;SDS011;7954;51.914;8.420;2023-09-12T08:07:34;13.67;;;11.97;;
15708;SDS011;7954;51.914;8.420;2023-09-12T08:10:04;11.40;;;10.30;;
15708;SDS011;7954;51.914;8.420;2023-09-12T08:12:32;8.93;;;8.03;;
15708;SDS011;7954;51.914;8.420;2023-09-12T08:15:03;9.43;;;8.60;;
15708;SDS011;7954;51.914;8.420;2023-09-12T08:17:32;13.93;;;10.47;;
15708;SDS011;7954;51.914;8.420;2023-09-12T08:20:00;12.53;;;11.23;;
15708;SDS011;7954;51.914;8.420;2023-09-12T08:22:29;13.10;;;10.53;;
15708;SDS011;7954;51.914;8.420;2023-09-12T08:24:57;14.23;;;12.93;;
15708;SDS011;7954;51.914;8.420;2023-09-12T08:27:26;18.37;;;14.87;;
15708;SDS011;7954;51.914;8.420;2023-09-12T08:29:54;28.50;;;17.87;;
15708;SDS011;7954;51.914;8.420;2023-09-12T08:32:23;17.43;;;11.37;;
15708;SDS011;7954;51.914;8.420;2023-09-12T08:34:51;11.83;;;10.03;;
15708;SDS011;7954;51.914;8.420;2023-09-12T08:37:20;12.17;;;10.73;;
15708;SDS011;7954;51.914;8.420;2023-09-12T08:39:49;8.27;;;7.47;;
15708;SDS011;7954;51.914;8.420;2023-09-12T08:42:24;12.60;;;10.17;;
15708;SDS011;7954;51.914;8.420;2023-09-12T08:44:54;9.73;;;8.90;;
15708;SDS011;7954;51.914;8.420;2023-09-12T08:47:25;13.70;;;10.43;;
15708;SDS011;7954;51.914;8.420;2023-09-12T08:49:54;16.73;;;11.80;;
15708;SDS011;7954;51.914;8.420;2023-09-12T08:52:23;14.27;;;11.77;;
15708;SDS011;7954;51.914;8.420;2023-09-12T08:54:52;10.43;;;9.13;;
15708;SDS011;7954;51.914;8.420;2023-09-12T08:57:20;16.83;;;11.57;;
15708;SDS011;7954;51.914;8.420;2023-09-12T08:59:49;11.27;;;10.00;;
15708;SDS011;7954;51.914;8.420;2023-09-12T09:02:19;14.50;;;10.97;;
15708;SDS011;7954;51.914;8.420;2023-09-12T09:04:49;12.17;;;10.63;;
15708;SDS011;7954;51.914;8.420;2023-09-12T09:07:18;16.47;;;12.60;;
15708;SDS011;7954;51.914;8.420;2023-09-12T09:09:47;16.27;;;12.53;;
15708;SDS011;7954;51.914;8.420;2023-09-12T09:12:18;16.20;;;12.57;;
15708;SDS011;7954;51.914;8.420;2023-09-12T09:14:47;15.53;;;12.97;;
15708;SDS011;7954;51.914;8.420;2023-09-12T09:17:15;13.17;;;11.77;;
15708;SDS011;7954;51.914;8.420;2023-09-12T09:20:01;13.20;;;10.70;;
15708;SDS011;7954;51.914;8.420;2023-09-12T09:22:32;10.33;;;9.30;;
15708;SDS011;7954;51.914;8.420;2023-09-12T09:25:09;11.87;;;10.27;;
15708;SDS011;7954;51.914;8.420;2023-09-12T09:27:39;11.87;;;10.67;;
15708;SDS011;7954;51.914;8.420;2023-09-12T09:30:07;12.30;;;11.00;;
15708;SDS011;7954;51.914;8.420;2023-09-12T09:32:36;11.87;;;10.50;;
15708;SDS011;7954;51.914;8.420;2023-09-12T09:35:07;13.30;;;10.97;;
15708;SDS011;7954;51.914;8.420;2023-09-12T09:37:37;12.60;;;11.00;;
15708;SDS011;7954;51.914;8.420;2023-09-12T09:40:07;9.90;;;9.00;;
15708;SDS011;7954;51.914;8.420;2023-09-12T09:42:37;11.17;;;9.40;;
15708;SDS011;7954;51.914;8.420;2023-09-12T09:45:06;9.63;;;8.67;;
15708;SDS011;7954;51.914;8.420;2023-09-12T09:47:34;10.97;;;9.00;;
15708;SDS011;7954;51.914;8.420;2023-09-12T09:50:03;9.23;;;8.33;;
15708;SDS011;7954;51.914;8.420;2023-09-12T09:52:33;10.50;;;9.40;;
15708;SDS011;7954;51.914;8.420;2023-09-12T09:55:02;10.57;;;9.13;;
15708;SDS011;7954;51.914;8.420;2023-09-12T09:57:36;8.27;;;7.47;;
15708;SDS011;7954;51.914;8.420;2023-09-12T10:00:06;13.77;;;10.40;;
15708;SDS011;7954;51.914;8.420;2023-09-12T10:02:35;12.23;;;9.83;;
15708;SDS011;7954;51.914;8.420;2023-09-12T10:05:05;10.67;;;9.37;;
15708;SDS011;7954;51.914;8.420;2023-09-12T10:07:35;10.77;;;9.03;;
15708;SDS011;7954;51.914;8.420;2023-09-12T10:10:05;11.40;;;10.27;;
15708;SDS011;7954;51.914;8.420;2023-09-12T10:12:34;13.53;;;11.57;;
15708;SDS011;7954;51.914;8.420;2023-09-12T10:15:04;11.03;;;9.97;;
15708;SDS011;7954;51.914;8.420;2023-09-12T10:17:35;10.13;;;9.10;;
15708;SDS011;7954;51.914;8.420;2023-09-12T10:20:06;9.83;;;7.67;;
15708;SDS011;7954;51.914;8.420;2023-09-12T10:22:43;13.33;;;10.67;;
15708;SDS011;7954;51.914;8.420;2023-09-12T10:25:13;11.93;;;9.97;;
15708;SDS011;7954;51.914;8.420;2023-09-12T10:27:41;12.73;;;10.23;;
15708;SDS011;7954;51.914;8.420;2023-09-12T10:30:11;11.53;;;9.97;;
15708;SDS011;7954;51.914;8.420;2023-09-12T10:32:40;11.70;;;9.67;;
15708;SDS011;7954;51.914;8.420;2023-09-12T10:35:10;10.17;;;9.13;;
15708;SDS011;7954;51.914;8.420;2023-09-12T10:37:38;11.17;;;8.37;;
15708;SDS011;7954;51.914;8.420;2023-09-12T10:40:12;7.83;;;7.03;;
15708;SDS011;7954;51.914;8.420;2023-09-12T10:42:42;10.43;;;8.83;;
15708;SDS011;7954;51.914;8.420;2023-09-12T10:45:10;10.50;;;9.40;;
15708;SDS011;7954;51.914;8.420;2023-09-12T10:47:38;11.33;;;10.00;;
15708;SDS011;7954;51.914;8.420;2023-09-12T10:50:06;7.37;;;6.67;;
15708;SDS011;7954;51.914;8.420;2023-09-12T10:52:35;8.37;;;6.93;;
15708;SDS011;7954;51.914;8.420;2023-09-12T10:55:09;8.20;;;7.40;;
15708;SDS011;7954;51.914;8.420;2023-09-12T11:00:30;7.77;;;7.07;;
15708;SDS011;7954;51.914;8.420;2023-09-12T11:02:59;6.30;;;5.70;;
15708;SDS011;7954;51.914;8.420;2023-09-12T11:05:50;5.47;;;4.97;;
15708;SDS011;7954;51.914;8.420;2023-09-12T11:08:20;5.87;;;5.27;;
15708;SDS011;7954;51.914;8.420;2023-09-12T11:14:02;4.40;;;4.00;;
15708;SDS011;7954;51.914;8.420;2023-09-12T11:16:31;5.30;;;4.80;;
15708;SDS011;7954;51.914;8.420;2023-09-12T11:19:17;4.60;;;4.20;;
15708;SDS011;7954;51.914;8.420;2023-09-12T11:21:46;5.07;;;4.57;;
15708;SDS011;7954;51.914;8.420;2023-09-12T11:24:15;4.20;;;3.90;;
15708;SDS011;7954;51.914;8.420;2023-09-12T11:26:53;4.57;;;4.17;;
15708;SDS011;7954;51.914;8.420;2023-09-12T11:29:28;4.67;;;4.27;;
15708;SDS011;7954;51.914;8.420;2023-09-12T11:31:58;4.00;;;3.70;;
15708;SDS011;7954;51.914;8.420;2023-09-12T11:34:29;3.60;;;3.40;;
15708;SDS011;7954;51.914;8.420;2023-09-12T11:37:04;3.70;;;3.40;;
15708;SDS011;7954;51.914;8.420;2023-09-12T11:39:34;3.70;;;3.40;;
15708;SDS011;7954;51.914;8.420;2023-09-12T11:42:05;3.47;;;3.27;;
15708;SDS011;7954;51.914;8.420;2023-09-12T11:44:40;3.27;;;2.97;;
15708;SDS011;7954;51.914;8.420;2023-09-12T11:47:11;3.40;;;3.17;;
15708;SDS011;7954;51.914;8.420;2023-09-12T11:49:39;3.30;;;3.00;;
15708;SDS011;7954;51.914;8.420;2023-09-12T11:52:09;3.13;;;2.83;;
15708;SDS011;7954;51.914;8.420;2023-09-12T11:54:39;3.10;;;2.80;;
15708;SDS011;7954;51.914;8.420;2023-09-12T11:57:09;3.07;;;2.77;;
15708;SDS011;7954;51.914;8.420;2023-09-12T11:59:39;2.70;;;2.53;;
15708;SDS011;7954;51.914;8.420;2023-09-12T12:02:09;3.20;;;2.90;;
15708;SDS011;7954;51.914;8.420;2023-09-12T12:04:40;2.73;;;2.53;;
15708;SDS011;7954;51.914;8.420;2023-09-12T12:07:09;3.03;;;2.60;;
15708;SDS011;7954;51.914;8.420;2023-09-12T12:09:37;2.70;;;2.50;;
15708;SDS011;7954;51.914;8.420;2023-09-12T12:12:11;2.70;;;2.50;;
15708;SDS011;7954;51.914;8.420;2023-09-12T12:14:40;2.70;;;2.50;;
15708;SDS011;7954;51.914;8.420;2023-09-12T12:17:10;3.30;;;2.53;;
15708;SDS011;7954;51.914;8.420;2023-09-12T12:19:39;2.87;;;2.50;;
15708;SDS011;7954;51.914;8.420;2023-09-12T12:22:07;2.97;;;2.30;;
15708;SDS011;7954;51.914;8.420;2023-09-12T12:24:38;2.57;;;2.37;;
15708;SDS011;7954;51.914;8.420;2023-09-12T12:27:08;2.27;;;2.07;;
15708;SDS011;7954;51.914;8.420;2023-09-12T12:29:41;2.40;;;2.20;;
15708;SDS011;7954;51.914;8.420;2023-09-12T12:32:10;3.63;;;3.30;;
15708;SDS011;7954;51.914;8.420;2023-09-12T12:34:39;2.93;;;2.63;;
15708;SDS011;7954;51.914;8.420;2023-09-12T12:37:28;3.40;;;3.10;;
15708;SDS011;7954;51.914;8.420;2023-09-12T12:39:58;3.03;;;2.77;;
15708;SDS011;7954;51.914;8.420;2023-09-12T12:42:32;3.27;;;2.73;;
15708;SDS011;7954;51.914;8.420;2023-09-12T12:45:18;2.83;;;2.63;;
15708;SDS011;7954;51.914;8.420;2023-09-12T12:47:50;3.47;;;3.27;;
15708;SDS011;7954;51.914;8.420;2023-09-12T12:50:20;4.33;;;4.03;;
15708;SDS011;7954;51.914;8.420;2023-09-12T12:52:49;3.80;;;3.50;;
15708;SDS011;7954;51.914;8.420;2023-09-12T12:55:19;3.47;;;3.27;;
15708;SDS011;7954;51.914;8.420;2023-09-12T12:57:48;3.20;;;3.00;;
15708;SDS011;7954;51.914;8.420;2023-09-12T13:00:18;3.00;;;2.80;;
15708;SDS011;7954;51.914;8.420;2023-09-12T13:02:47;3.13;;;2.93;;
15708;SDS011;7954;51.914;8.420;2023-09-12T13:05:19;2.90;;;2.70;;
15708;SDS011;7954;51.914;8.420;2023-09-12T13:07:49;3.03;;;2.77;;
15708;SDS011;7954;51.914;8.420;2023-09-12T13:10:17;3.00;;;2.80;;
15708;SDS011;7954;51.914;8.420;2023-09-12T13:12:45;3.00;;;2.80;;
15708;SDS011;7954;51.914;8.420;2023-09-12T13:15:13;2.80;;;2.60;;
15708;SDS011;7954;51.914;8.420;2023-09-12T13:17:45;2.75;;;2.55;;
15708;SDS011;7954;51.914;8.420;2023-09-12T13:20:13;2.70;;;2.50;;
15708;SDS011;7954;51.914;8.420;2023-09-12T13:22:41;2.80;;;2.60;;
15708;SDS011;7954;51.914;8.420;2023-09-12T13:25:11;3.35;;;2.28;;
15708;SDS011;7954;51.914;8.420;2023-09-12T13:27:39;2.40;;;2.20;;
15708;SDS011;7954;51.914;8.420;2023-09-12T13:30:07;2.67;;;2.47;;
15708;SDS011;7954;51.914;8.420;2023-09-12T13:32:38;2.75;;;2.30;;
15708;SDS011;7954;51.914;8.420;2023-09-12T13:35:08;2.42;;;2.22;;
15708;SDS011;7954;51.914;8.420;2023-09-12T13:37:36;2.40;;;2.20;;
15708;SDS011;7954;51.914;8.420;2023-09-12T13:40:04;2.85;;;2.60;;
15708;SDS011;7954;51.914;8.420;2023-09-12T13:42:36;2.47;;;2.28;;
15708;SDS011;7954;51.914;8.420;2023-09-12T13:45:04;2.20;;;2.10;;
15708;SDS011;7954;51.914;8.420;2023-09-12T13:47:34;2.40;;;2.20;;
15708;SDS011;7954;51.914;8.420;2023-09-12T13:50:05;2.70;;;2.50;;
15708;SDS011;7954;51.914;8.420;2023-09-12T13:52:35;2.50;;;2.40;;
15708;SDS011;7954;51.914;8.420;2023-09-12T13:55:03;2.55;;;2.35;;
15708;SDS011;7954;51.914;8.420;2023-09-12T13:57:32;2.47;;;2.28;;
15708;SDS011;7954;51.914;8.420;2023-09-12T14:00:10;3.08;;;2.88;;
15708;SDS011;7954;51.914;8.420;2023-09-12T14:02:38;2.38;;;2.17;;
15708;SDS011;7954;51.914;8.420;2023-09-12T14:05:07;2.80;;;2.60;;
15708;SDS011;7954;51.914;8.420;2023-09-12T14:07:41;4.30;;;4.00;;
15708;SDS011;7954;51.914;8.420;2023-09-12T14:10:10;2.90;;;2.70;;
15708;SDS011;7954;51.914;8.420;2023-09-12T14:12:51;3.20;;;2.90;;
15708;SDS011;7954;51.914;8.420;2023-09-12T14:15:22;2.70;;;2.50;;
15708;SDS011;7954;51.914;8.420;2023-09-12T14:17:50;2.60;;;2.40;;
15708;SDS011;7954;51.914;8.420;2023-09-12T14:20:22;2.78;;;2.58;;
15708;SDS011;7954;51.914;8.420;2023-09-12T14:22:51;2.70;;;2.50;;
15708;SDS011;7954;51.914;8.420;2023-09-12T14:25:20;2.67;;;2.47;;
15708;SDS011;7954;51.914;8.420;2023-09-12T14:27:49;3.10;;;2.53;;
15708;SDS011;7954;51.914;8.420;2023-09-12T14:30:17;2.58;;;2.38;;
15708;SDS011;7954;51.914;8.420;2023-09-12T14:32:47;2.60;;;2.40;;
15708;SDS011;7954;51.914;8.420;2023-09-12T14:35:15;2.60;;;2.40;;
15708;SDS011;7954;51.914;8.420;2023-09-12T14:37:43;2.83;;;2.63;;
15708;SDS011;7954;51.914;8.420;2023-09-12T14:40:13;2.63;;;2.42;;
15708;SDS011;7954;51.914;8.420;2023-09-12T14:42:43;2.75;;;2.55;;
15708;SDS011;7954;51.914;8.420;2023-09-12T14:45:11;2.63;;;2.42;;
15708;SDS011;7954;51.914;8.420;2023-09-12T14:47:41;2.92;;;2.67;;
15708;SDS011;7954;51.914;8.420;2023-09-12T14:50:09;2.42;;;2.22;;
15708;SDS011;7954;51.914;8.420;2023-09-12T14:52:38;2.30;;;2.10;;
15708;SDS011;7954;51.914;8.420;2023-09-12T14:55:08;2.35;;;2.15;;
15708;SDS011;7954;51.914;8.420;2023-09-12T14:57:39;2.42;;;2.22;;
15708;SDS011;7954;51.914;8.420;2023-09-12T15:00:07;2.15;;;2.05;;
15708;SDS011;7954;51.914;8.420;2023-09-12T15:02:36;1.83;;;1.73;;
15708;SDS011;7954;51.914;8.420;2023-09-12T15:05:06;2.50;;;2.30;;
15708;SDS011;7954;51.914;8.420;2023-09-12T15:07:34;2.55;;;2.30;;
15708;SDS011;7954;51.914;8.420;2023-09-12T15:10:04;2.30;;;2.20;;
15708;SDS011;7954;51.914;8.420;2023-09-12T15:12:32;2.50;;;2.30;;
15708;SDS011;7954;51.914;8.420;2023-09-12T15:15:03;2.50;;;2.30;;
15708;SDS011;7954;51.914;8.420;2023-09-12T15:17:31;2.60;;;2.40;;
15708;SDS011;7954;51.914;8.420;2023-09-12T15:20:00;3.38;;;2.50;;